sensor_id;sensor_type;location;lat;lon;timestamp;pressure;altitude;pressure_sealevel;temperature;humidity
52319;BME280;38258;51.148;14.068;2023-07-13T00:01:54;98010.91;;;15.78;100.00
52319;BME280;38258;51.148;14.068;2023-07-13T00:04:23;98011.34;;;15.86;100.00
52319;BME280;38258;51.148;14.068;2023-07-13T00:06:51;98000.50;;;15.92;100.00
52319;BME280;38258;51.148;14.068;2023-07-13T00:09:18;97995.13;;;15.94;100.00
52319;BME280;38258;51.148;14.068;2023-07-13T00:11:45;97998.19;;;16.02;100.00
52319;BME280;38258;51.148;14.068;2023-07-13T00:14:13;98001.47;;;16.06;100.00
52319;BME280;38258;51.148;14.068;2023-07-13T00:16:41;98002.16;;;16.09;100.00
52319;BME280;38258;51.148;14.068;2023-07-13T00:19:09;98000.28;;;16.11;100.00
52319;BME280;38258;51.148;14.068;2023-07-13T00:21:38;97993.97;;;16.14;100.00
52319;BME280;38258;51.148;14.068;2023-07-13T00:24:05;98001.72;;;16.17;100.00
52319;BME280;38258;51.148;14.068;2023-07-13T00:26:32;98010.13;;;16.24;100.00
52319;BME280;38258;51.148;14.068;2023-07-13T00:28:59;98005.34;;;16.31;100.00
52319;BME280;38258;51.148;14.068;2023-07-13T00:31:25;98013.94;;;16.34;100.00
52319;BME280;38258;51.148;14.068;2023-07-13T00:33:52;98001.31;;;16.39;100.00
52319;BME280;38258;51.148;14.068;2023-07-13T00:36:19;98005.50;;;16.44;100.00
52319;BME280;38258;51.148;14.068;2023-07-13T00:38:48;97998.97;;;16.49;100.00
52319;BME280;38258;51.148;14.068;2023-07-13T00:41:14;97997.97;;;16.52;100.00
52319;BME280;38258;51.148;14.068;2023-07-13T00:43:41;98001.34;;;16.54;100.00
52319;BME280;38258;51.148;14.068;2023-07-13T00:46:30;98004.75;;;16.56;100.00
52319;BME280;38258;51.148;14.068;2023-07-13T00:48:59;98010.91;;;16.57;100.00
52319;BME280;38258;51.148;14.068;2023-07-13T00:51:32;98035.34;;;16.60;100.00
52319;BME280;38258;51.148;14.068;2023-07-13T00:54:04;98048.53;;;16.60;100.00
52319;BME280;38258;51.148;14.068;2023-07-13T00:56:33;98073.19;;;16.45;100.00
52319;BME280;38258;51.148;14.068;2023-07-13T00:59:00;98090.19;;;16.86;100.00
52319;BME280;38258;51.148;14.068;2023-07-13T01:01:28;98100.97;;;16.97;100.00
52319;BME280;38258;51.148;14.068;2023-07-13T01:03:55;98101.34;;;16.44;100.00
52319;BME280;38258;51.148;14.068;2023-07-13T01:06:22;98110.00;;;16.16;100.00
52319;BME280;38258;51.148;14.068;2023-07-13T01:08:49;98113.69;;;15.79;100.00
52319;BME280;38258;51.148;14.068;2023-07-13T01:11:20;98105.06;;;15.60;100.00
52319;BME280;38258;51.148;14.068;2023-07-13T01:13:47;98102.16;;;15.48;100.00
52319;BME280;38258;51.148;14.068;2023-07-13T01:16:19;98105.38;;;15.53;100.00
52319;BME280;38258;51.148;14.068;2023-07-13T01:18:48;98097.88;;;15.46;100.00
52319;BME280;38258;51.148;14.068;2023-07-13T01:21:16;98101.28;;;15.48;100.00
52319;BME280;38258;51.148;14.068;2023-07-13T01:23:44;98114.19;;;15.36;100.00
52319;BME280;38258;51.148;14.068;2023-07-13T01:26:10;98102.66;;;15.55;100.00
52319;BME280;38258;51.148;14.068;2023-07-13T01:28:37;98079.81;;;15.22;100.00
52319;BME280;38258;51.148;14.068;2023-07-13T01:31:07;98058.22;;;14.97;100.00
52319;BME280;38258;51.148;14.068;2023-07-13T01:33:36;98040.72;;;14.96;100.00
52319;BME280;38258;51.148;14.068;2023-07-13T01:36:03;98023.28;;;15.11;100.00
52319;BME280;38258;51.148;14.068;2023-07-13T01:38:32;97990.91;;;15.09;100.00
52319;BME280;38258;51.148;14.068;2023-07-13T01:41:00;97974.75;;;15.16;100.00
52319;BME280;38258;51.148;14.068;2023-07-13T01:43:27;97979.53;;;15.25;100.00
52319;BME280;38258;51.148;14.068;2023-07-13T01:45:54;97995.66;;;15.19;100.00
52319;BME280;38258;51.148;14.068;2023-07-13T01:48:20;98015.72;;;15.21;100.00
52319;BME280;38258;51.148;14.068;2023-07-13T01:50:47;98027.66;;;15.29;100.00
52319;BME280;38258;51.148;14.068;2023-07-13T01:53:14;98032.06;;;15.28;100.00
52319;BME280;38258;51.148;14.068;2023-07-13T01:55:42;98030.88;;;15.34;100.00
52319;BME280;38258;51.148;14.068;2023-07-13T01:58:09;98036.75;;;15.39;100.00
52319;BME280;38258;51.148;14.068;2023-07-13T02:00:35;98044.22;;;15.31;100.00
52319;BME280;38258;51.148;14.068;2023-07-13T02:03:02;98050.94;;;15.36;100.00
52319;BME280;38258;51.148;14.068;2023-07-13T02:05:31;98047.16;;;15.24;100.00
52319;BME280;38258;51.148;14.068;2023-07-13T02:07:58;98048.19;;;15.22;100.00
52319;BME280;38258;51.148;14.068;2023-07-13T02:10:24;98037.25;;;15.30;100.00
52319;BME280;38258;51.148;14.068;2023-07-13T02:12:52;98038.72;;;15.35;100.00
52319;BME280;38258;51.148;14.068;2023-07-13T02:15:19;98032.56;;;15.35;100.00
52319;BME280;38258;51.148;14.068;2023-07-13T02:17:46;98031.81;;;15.33;100.00
52319;BME280;38258;51.148;14.068;2023-07-13T02:20:13;98030.19;;;15.30;100.00
52319;BME280;38258;51.148;14.068;2023-07-13T02:22:39;98026.75;;;15.12;100.00
52319;BME280;38258;51.148;14.068;2023-07-13T02:25:07;98017.00;;;14.96;100.00
52319;BME280;38258;51.148;14.068;2023-07-13T02:27:33;98026.31;;;15.04;100.00
52319;BME280;38258;51.148;14.068;2023-07-13T02:30:01;98020.03;;;15.06;100.00
52319;BME280;38258;51.148;14.068;2023-07-13T02:32:28;98017.66;;;15.18;100.00
52319;BME280;38258;51.148;14.068;2023-07-13T02:34:55;98018.34;;;15.21;100.00
52319;BME280;38258;51.148;14.068;2023-07-13T02:37:22;98026.34;;;15.20;100.00
52319;BME280;38258;51.148;14.068;2023-07-13T02:39:48;98027.47;;;15.32;100.00
52319;BME280;38258;51.148;14.068;2023-07-13T02:42:15;98036.91;;;15.36;100.00
52319;BME280;38258;51.148;14.068;2023-07-13T02:44:43;98031.41;;;15.40;100.00
52319;BME280;38258;51.148;14.068;2023-07-13T02:47:11;98038.09;;;15.30;100.00
52319;BME280;38258;51.148;14.068;2023-07-13T02:49:38;98042.34;;;15.33;100.00
52319;BME280;38258;51.148;14.068;2023-07-13T02:52:05;98035.38;;;15.32;100.00
52319;BME280;38258;51.148;14.068;2023-07-13T02:54:32;98042.53;;;15.30;100.00
52319;BME280;38258;51.148;14.068;2023-07-13T02:56:59;98047.09;;;15.26;100.00
52319;BME280;38258;51.148;14.068;2023-07-13T02:59:25;98048.38;;;15.35;100.00
52319;BME280;38258;51.148;14.068;2023-07-13T03:01:52;98045.72;;;15.19;100.00
52319;BME280;38258;51.148;14.068;2023-07-13T03:04:20;98038.03;;;15.32;100.00
52319;BME280;38258;51.148;14.068;2023-07-13T03:06:47;98036.31;;;15.31;100.00
52319;BME280;38258;51.148;14.068;2023-07-13T03:09:15;98040.41;;;15.36;100.00
52319;BME280;38258;51.148;14.068;2023-07-13T03:11:47;98046.28;;;15.41;100.00
52319;BME280;38258;51.148;14.068;2023-07-13T03:14:27;98046.34;;;15.40;100.00
52319;BME280;38258;51.148;14.068;2023-07-13T03:16:54;98047.03;;;15.44;100.00
52319;BME280;38258;51.148;14.068;2023-07-13T03:19:25;98054.00;;;15.45;100.00
52319;BME280;38258;51.148;14.068;2023-07-13T03:21:53;98052.38;;;15.42;100.00
52319;BME280;38258;51.148;14.068;2023-07-13T03:24:20;98050.94;;;15.36;100.00
52319;BME280;38258;51.148;14.068;2023-07-13T03:26:51;98051.50;;;15.25;100.00
52319;BME280;38258;51.148;14.068;2023-07-13T03:29:18;98056.13;;;15.38;100.00
52319;BME280;38258;51.148;14.068;2023-07-13T03:31:45;98054.00;;;15.29;100.00
52319;BME280;38258;51.148;14.068;2023-07-13T03:34:12;98059.00;;;15.33;100.00
52319;BME280;38258;51.148;14.068;2023-07-13T03:36:42;98061.50;;;15.36;100.00
52319;BME280;38258;51.148;14.068;2023-07-13T03:39:11;98061.63;;;15.33;100.00
52319;BME280;38258;51.148;14.068;2023-07-13T03:41:45;98057.06;;;15.37;100.00
52319;BME280;38258;51.148;14.068;2023-07-13T03:44:12;98055.94;;;15.41;100.00
52319;BME280;38258;51.148;14.068;2023-07-13T03:46:39;98052.44;;;15.24;100.00
52319;BME280;38258;51.148;14.068;2023-07-13T03:49:06;98046.72;;;15.50;100.00
52319;BME280;38258;51.148;14.068;2023-07-13T03:51:33;98058.69;;;15.55;100.00
52319;BME280;38258;51.148;14.068;2023-07-13T03:54:01;98058.28;;;15.63;100.00
52319;BME280;38258;51.148;14.068;2023-07-13T03:56:29;98073.78;;;15.69;100.00
52319;BME280;38258;51.148;14.068;2023-07-13T03:58:59;98072.41;;;15.78;100.00
52319;BME280;38258;51.148;14.068;2023-07-13T04:01:25;98084.66;;;15.79;100.00
52319;BME280;38258;51.148;14.068;2023-07-13T04:03:52;98088.25;;;15.78;100.00
52319;BME280;38258;51.148;14.068;2023-07-13T04:06:23;98097.25;;;15.74;100.00
52319;BME280;38258;51.148;14.068;2023-07-13T04:08:52;98093.72;;;15.91;100.00
52319;BME280;38258;51.148;14.068;2023-07-13T04:11:21;98095.53;;;15.91;100.00
52319;BME280;38258;51.148;14.068;2023-07-13T04:13:49;98098.88;;;15.77;100.00
52319;BME280;38258;51.148;14.068;2023-07-13T04:16:17;98100.31;;;15.82;100.00
52319;BME280;38258;51.148;14.068;2023-07-13T04:18:45;98096.09;;;15.80;100.00
52319;BME280;38258;51.148;14.068;2023-07-13T04:21:12;98094.28;;;15.80;100.00
52319;BME280;38258;51.148;14.068;2023-07-13T04:23:40;98105.91;;;15.94;100.00
52319;BME280;38258;51.148;14.068;2023-07-13T04:26:07;98117.84;;;15.83;100.00
52319;BME280;38258;51.148;14.068;2023-07-13T04:28:35;98122.97;;;15.87;100.00
52319;BME280;38258;51.148;14.068;2023-07-13T04:31:01;98119.19;;;16.24;100.00
52319;BME280;38258;51.148;14.068;2023-07-13T04:33:28;98112.78;;;16.29;100.00
52319;BME280;38258;51.148;14.068;2023-07-13T04:35:55;98116.69;;;16.37;100.00
52319;BME280;38258;51.148;14.068;2023-07-13T04:38:24;98125.38;;;16.39;100.00
52319;BME280;38258;51.148;14.068;2023-07-13T04:40:54;98129.13;;;16.35;100.00
52319;BME280;38258;51.148;14.068;2023-07-13T04:43:21;98141.31;;;16.38;100.00
52319;BME280;38258;51.148;14.068;2023-07-13T04:45:50;98130.81;;;16.52;100.00
52319;BME280;38258;51.148;14.068;2023-07-13T04:48:16;98129.00;;;16.53;100.00
52319;BME280;38258;51.148;14.068;2023-07-13T04:50:43;98124.84;;;16.49;100.00
52319;BME280;38258;51.148;14.068;2023-07-13T04:53:10;98134.56;;;16.48;100.00
52319;BME280;38258;51.148;14.068;2023-07-13T04:55:37;98129.78;;;16.55;100.00
52319;BME280;38258;51.148;14.068;2023-07-13T04:58:04;98122.69;;;16.72;100.00
52319;BME280;38258;51.148;14.068;2023-07-13T05:00:31;98124.41;;;16.73;100.00
52319;BME280;38258;51.148;14.068;2023-07-13T05:03:00;98117.44;;;16.39;100.00
52319;BME280;38258;51.148;14.068;2023-07-13T05:05:27;98113.88;;;16.40;100.00
52319;BME280;38258;51.148;14.068;2023-07-13T05:07:54;98123.84;;;16.35;100.00
52319;BME280;38258;51.148;14.068;2023-07-13T05:10:21;98124.78;;;16.18;100.00
52319;BME280;38258;51.148;14.068;2023-07-13T05:12:48;98123.41;;;16.27;100.00
52319;BME280;38258;51.148;14.068;2023-07-13T05:15:15;98124.34;;;16.58;100.00
52319;BME280;38258;51.148;14.068;2023-07-13T05:17:46;98130.13;;;16.65;100.00
52319;BME280;38258;51.148;14.068;2023-07-13T05:20:14;98131.91;;;16.64;100.00
52319;BME280;38258;51.148;14.068;2023-07-13T05:22:41;98136.97;;;16.84;100.00
52319;BME280;38258;51.148;14.068;2023-07-13T05:25:08;98137.19;;;16.95;100.00
52319;BME280;38258;51.148;14.068;2023-07-13T05:27:36;98139.44;;;17.03;100.00
52319;BME280;38258;51.148;14.068;2023-07-13T05:30:03;98134.53;;;17.26;100.00
52319;BME280;38258;51.148;14.068;2023-07-13T05:32:31;98127.78;;;17.50;100.00
52319;BME280;38258;51.148;14.068;2023-07-13T05:34:58;98140.13;;;17.64;100.00
52319;BME280;38258;51.148;14.068;2023-07-13T05:37:26;98135.16;;;17.74;100.00
52319;BME280;38258;51.148;14.068;2023-07-13T05:39:52;98138.91;;;17.85;100.00
52319;BME280;38258;51.148;14.068;2023-07-13T05:42:19;98136.63;;;18.22;100.00
52319;BME280;38258;51.148;14.068;2023-07-13T05:44:45;98133.78;;;18.25;100.00
52319;BME280;38258;51.148;14.068;2023-07-13T05:47:12;98131.97;;;18.40;100.00
52319;BME280;38258;51.148;14.068;2023-07-13T05:49:40;98136.47;;;18.53;100.00
52319;BME280;38258;51.148;14.068;2023-07-13T05:52:07;98136.50;;;18.38;100.00
52319;BME280;38258;51.148;14.068;2023-07-13T05:54:35;98138.03;;;18.55;100.00
52319;BME280;38258;51.148;14.068;2023-07-13T05:57:02;98135.00;;;18.61;100.00
52319;BME280;38258;51.148;14.068;2023-07-13T05:59:29;98125.47;;;18.72;100.00
52319;BME280;38258;51.148;14.068;2023-07-13T06:01:55;98118.31;;;18.74;100.00
52319;BME280;38258;51.148;14.068;2023-07-13T06:04:22;98127.47;;;18.96;100.00
52319;BME280;38258;51.148;14.068;2023-07-13T06:06:48;98125.94;;;19.19;100.00
52319;BME280;38258;51.148;14.068;2023-07-13T06:09:15;98123.84;;;18.97;100.00
52319;BME280;38258;51.148;14.068;2023-07-13T06:11:43;98124.81;;;18.96;100.00
52319;BME280;38258;51.148;14.068;2023-07-13T06:14:10;98132.84;;;19.21;100.00
52319;BME280;38258;51.148;14.068;2023-07-13T06:16:37;98124.81;;;18.96;100.00
52319;BME280;38258;51.148;14.068;2023-07-13T06:19:03;98126.56;;;18.69;100.00
52319;BME280;38258;51.148;14.068;2023-07-13T06:21:30;98136.50;;;18.65;100.00
52319;BME280;38258;51.148;14.068;2023-07-13T06:23:57;98126.75;;;18.66;100.00
52319;BME280;38258;51.148;14.068;2023-07-13T06:26:24;98128.13;;;18.72;100.00
52319;BME280;38258;51.148;14.068;2023-07-13T06:28:52;98132.19;;;18.77;100.00
52319;BME280;38258;51.148;14.068;2023-07-13T06:31:19;98134.00;;;18.77;100.00
52319;BME280;38258;51.148;14.068;2023-07-13T06:33:45;98140.22;;;19.03;100.00
52319;BME280;38258;51.148;14.068;2023-07-13T06:36:12;98143.13;;;19.39;100.00
52319;BME280;38258;51.148;14.068;2023-07-13T06:38:39;98140.34;;;19.92;100.00
52319;BME280;38258;51.148;14.068;2023-07-13T06:41:06;98140.47;;;19.65;100.00
52319;BME280;38258;51.148;14.068;2023-07-13T06:43:33;98144.06;;;19.90;100.00
52319;BME280;38258;51.148;14.068;2023-07-13T06:46:01;98146.53;;;19.80;100.00
52319;BME280;38258;51.148;14.068;2023-07-13T06:48:28;98142.50;;;19.74;100.00
52319;BME280;38258;51.148;14.068;2023-07-13T06:50:54;98145.22;;;19.86;100.00
52319;BME280;38258;51.148;14.068;2023-07-13T06:53:21;98152.59;;;20.32;100.00
52319;BME280;38258;51.148;14.068;2023-07-13T06:55:48;98158.28;;;19.89;100.00
52319;BME280;38258;51.148;14.068;2023-07-13T06:58:17;98171.19;;;20.32;100.00
52319;BME280;38258;51.148;14.068;2023-07-13T07:00:44;98165.63;;;20.97;100.00
52319;BME280;38258;51.148;14.068;2023-07-13T07:03:12;98177.28;;;20.83;100.00
52319;BME280;38258;51.148;14.068;2023-07-13T07:05:39;98180.25;;;20.79;100.00
52319;BME280;38258;51.148;14.068;2023-07-13T07:08:05;98176.13;;;21.23;96.30
52319;BME280;38258;51.148;14.068;2023-07-13T07:10:33;98173.66;;;21.20;94.54
52319;BME280;38258;51.148;14.068;2023-07-13T07:13:00;98183.47;;;20.71;99.44
52319;BME280;38258;51.148;14.068;2023-07-13T07:15:27;98180.78;;;20.59;98.70
52319;BME280;38258;51.148;14.068;2023-07-13T07:17:53;98175.72;;;20.81;95.02
52319;BME280;38258;51.148;14.068;2023-07-13T07:20:21;98182.09;;;20.41;96.42
52319;BME280;38258;51.148;14.068;2023-07-13T07:22:48;98177.34;;;20.95;97.72
52319;BME280;38258;51.148;14.068;2023-07-13T07:25:15;98187.50;;;21.37;94.25
52319;BME280;38258;51.148;14.068;2023-07-13T07:27:42;98181.59;;;21.56;92.21
52319;BME280;38258;51.148;14.068;2023-07-13T07:30:09;98189.09;;;21.51;93.36
52319;BME280;38258;51.148;14.068;2023-07-13T07:32:36;98185.34;;;21.42;89.90
52319;BME280;38258;51.148;14.068;2023-07-13T07:35:03;98194.63;;;21.95;91.64
52319;BME280;38258;51.148;14.068;2023-07-13T07:37:31;98190.19;;;21.48;88.90
52319;BME280;38258;51.148;14.068;2023-07-13T07:39:58;98195.91;;;20.70;87.22
52319;BME280;38258;51.148;14.068;2023-07-13T07:42:25;98207.84;;;20.65;94.54
52319;BME280;38258;51.148;14.068;2023-07-13T07:44:51;98199.19;;;21.23;94.29
52319;BME280;38258;51.148;14.068;2023-07-13T07:47:18;98196.69;;;21.32;86.14
52319;BME280;38258;51.148;14.068;2023-07-13T07:49:44;98206.97;;;22.18;87.14
52319;BME280;38258;51.148;14.068;2023-07-13T07:52:11;98199.56;;;21.29;73.74
52319;BME280;38258;51.148;14.068;2023-07-13T07:54:39;98199.66;;;20.92;82.68
52319;BME280;38258;51.148;14.068;2023-07-13T07:57:06;98206.78;;;21.16;83.16
52319;BME280;38258;51.148;14.068;2023-07-13T07:59:33;98205.28;;;21.83;79.14
52319;BME280;38258;51.148;14.068;2023-07-13T08:02:00;98205.22;;;21.60;71.04
52319;BME280;38258;51.148;14.068;2023-07-13T08:04:28;98197.56;;;21.56;78.71
52319;BME280;38258;51.148;14.068;2023-07-13T08:06:55;98204.06;;;21.76;72.04
52319;BME280;38258;51.148;14.068;2023-07-13T08:09:25;98209.19;;;21.55;78.76
52319;BME280;38258;51.148;14.068;2023-07-13T08:11:53;98206.69;;;21.17;78.68
52319;BME280;38258;51.148;14.068;2023-07-13T08:14:20;98203.09;;;21.41;76.59
52319;BME280;38258;51.148;14.068;2023-07-13T08:16:47;98209.44;;;21.16;77.44
52319;BME280;38258;51.148;14.068;2023-07-13T08:19:13;98208.81;;;22.18;78.72
52319;BME280;38258;51.148;14.068;2023-07-13T08:21:40;98213.00;;;22.43;75.77
52319;BME280;38258;51.148;14.068;2023-07-13T08:24:08;98211.56;;;21.82;75.16
52319;BME280;38258;51.148;14.068;2023-07-13T10:10:13;98256.44;;;25.60;45.57
52319;BME280;38258;51.148;14.068;2023-07-13T10:12:40;98262.03;;;24.47;48.64
52319;BME280;38258;51.148;14.068;2023-07-13T10:15:15;98268.09;;;24.49;52.94
52319;BME280;38258;51.148;14.068;2023-07-13T10:17:43;98254.59;;;26.28;47.29
52319;BME280;38258;51.148;14.068;2023-07-13T10:20:10;98259.53;;;25.06;51.11
52319;BME280;38258;51.148;14.068;2023-07-13T10:22:43;98261.25;;;25.56;50.26
52319;BME280;38258;51.148;14.068;2023-07-13T10:25:19;98253.97;;;25.96;47.16
52319;BME280;38258;51.148;14.068;2023-07-13T10:27:50;98256.41;;;27.11;45.53
52319;BME280;38258;51.148;14.068;2023-07-13T10:30:20;98254.97;;;26.43;44.05
52319;BME280;38258;51.148;14.068;2023-07-13T10:32:48;98252.97;;;26.07;44.87
52319;BME280;38258;51.148;14.068;2023-07-13T10:35:17;98263.16;;;26.69;44.77
52319;BME280;38258;51.148;14.068;2023-07-13T10:37:48;98265.03;;;28.22;40.98
52319;BME280;38258;51.148;14.068;2023-07-13T10:40:22;98260.16;;;26.06;44.73
52319;BME280;38258;51.148;14.068;2023-07-13T10:42:53;98250.78;;;24.84;46.81
52319;BME280;38258;51.148;14.068;2023-07-13T10:45:23;98256.84;;;25.16;48.34
52319;BME280;38258;51.148;14.068;2023-07-13T10:47:52;98259.78;;;27.49;47.26
52319;BME280;38258;51.148;14.068;2023-07-13T10:50:23;98261.94;;;26.91;44.59
52319;BME280;38258;51.148;14.068;2023-07-13T10:52:52;98244.44;;;27.42;44.03
52319;BME280;38258;51.148;14.068;2023-07-13T10:55:36;98247.84;;;26.23;44.00
52319;BME280;38258;51.148;14.068;2023-07-13T10:58:12;98256.03;;;25.64;45.26
52319;BME280;38258;51.148;14.068;2023-07-13T11:00:51;98253.22;;;25.26;47.44
52319;BME280;38258;51.148;14.068;2023-07-13T11:03:22;98248.94;;;26.31;44.95
52319;BME280;38258;51.148;14.068;2023-07-13T11:05:50;98232.88;;;27.86;42.23
52319;BME280;38258;51.148;14.068;2023-07-13T11:08:21;98243.75;;;27.03;40.80
52319;BME280;38258;51.148;14.068;2023-07-13T11:11:00;98230.59;;;26.36;41.26
52319;BME280;38258;51.148;14.068;2023-07-13T11:13:39;98223.97;;;27.85;39.79
52319;BME280;38258;51.148;14.068;2023-07-13T11:16:50;98237.94;;;26.34;41.21
52319;BME280;38258;51.148;14.068;2023-07-13T11:19:41;98226.91;;;27.74;38.87
52319;BME280;38258;51.148;14.068;2023-07-13T11:22:41;98235.81;;;28.27;38.23
52319;BME280;38258;51.148;14.068;2023-07-13T11:25:27;98247.06;;;26.97;40.29
52319;BME280;38258;51.148;14.068;2023-07-13T11:28:11;98233.41;;;26.90;40.66
52319;BME280;38258;51.148;14.068;2023-07-13T11:30:44;98217.50;;;28.74;38.53
52319;BME280;38258;51.148;14.068;2023-07-13T11:33:17;98215.88;;;28.46;38.66
52319;BME280;38258;51.148;14.068;2023-07-13T11:35:52;98224.94;;;28.11;37.60
52319;BME280;38258;51.148;14.068;2023-07-13T11:38:22;98236.78;;;26.92;40.12
52319;BME280;38258;51.148;14.068;2023-07-13T11:40:54;98234.22;;;26.45;42.01
52319;BME280;38258;51.148;14.068;2023-07-13T11:43:23;98232.69;;;25.94;41.79
52319;BME280;38258;51.148;14.068;2023-07-13T11:45:51;98229.91;;;24.88;43.61
52319;BME280;38258;51.148;14.068;2023-07-13T11:48:20;98228.09;;;24.88;43.92
52319;BME280;38258;51.148;14.068;2023-07-13T11:50:56;98227.69;;;24.42;44.58
52319;BME280;38258;51.148;14.068;2023-07-13T11:53:28;98240.81;;;24.14;45.48
52319;BME280;38258;51.148;14.068;2023-07-13T11:55:57;98228.63;;;24.00;45.97
52319;BME280;38258;51.148;14.068;2023-07-13T11:58:27;98227.69;;;24.42;46.96
52319;BME280;38258;51.148;14.068;2023-07-13T12:00:58;98231.56;;;24.18;48.57
52319;BME280;38258;51.148;14.068;2023-07-13T12:03:27;98248.25;;;25.02;47.06
52319;BME280;38258;51.148;14.068;2023-07-13T12:05:56;98237.16;;;26.51;46.18
52319;BME280;38258;51.148;14.068;2023-07-13T12:08:23;98235.22;;;25.96;44.96
52319;BME280;38258;51.148;14.068;2023-07-13T12:10:57;98221.50;;;25.61;45.79
52319;BME280;38258;51.148;14.068;2023-07-13T12:13:27;98220.03;;;27.35;43.73
52319;BME280;38258;51.148;14.068;2023-07-13T12:15:56;98222.53;;;26.92;43.87
52319;BME280;38258;51.148;14.068;2023-07-13T12:18:29;98233.19;;;27.02;47.15
52319;BME280;38258;51.148;14.068;2023-07-13T12:20:57;98234.84;;;26.57;44.39
52319;BME280;38258;51.148;14.068;2023-07-13T12:23:27;98215.31;;;26.92;43.32
52319;BME280;38258;51.148;14.068;2023-07-13T12:25:56;98204.66;;;26.54;43.16
52319;BME280;38258;51.148;14.068;2023-07-13T12:28:32;98229.66;;;26.27;44.54
52319;BME280;38258;51.148;14.068;2023-07-13T12:31:00;98223.16;;;24.83;48.85
52319;BME280;38258;51.148;14.068;2023-07-13T12:33:28;98234.59;;;26.12;47.58
52319;BME280;38258;51.148;14.068;2023-07-13T12:35:57;98223.50;;;27.09;45.79
52319;BME280;38258;51.148;14.068;2023-07-13T12:38:24;98219.81;;;27.46;44.16
52319;BME280;38258;51.148;14.068;2023-07-13T12:40:52;98218.13;;;27.27;44.14
52319;BME280;38258;51.148;14.068;2023-07-13T12:43:20;98209.69;;;27.40;43.73
52319;BME280;38258;51.148;14.068;2023-07-13T12:45:57;98213.25;;;27.67;39.51
52319;BME280;38258;51.148;14.068;2023-07-13T12:48:25;98207.00;;;27.85;38.78
52319;BME280;38258;51.148;14.068;2023-07-13T12:50:53;98204.78;;;27.80;38.07
52319;BME280;38258;51.148;14.068;2023-07-13T12:53:23;98206.91;;;26.59;41.91
52319;BME280;38258;51.148;14.068;2023-07-13T12:55:53;98215.06;;;26.58;42.27
52319;BME280;38258;51.148;14.068;2023-07-13T12:58:26;98206.31;;;27.38;42.43
52319;BME280;38258;51.148;14.068;2023-07-13T13:00:54;98204.53;;;26.74;41.75
52319;BME280;38258;51.148;14.068;2023-07-13T13:03:30;98215.00;;;26.49;41.44
52319;BME280;38258;51.148;14.068;2023-07-13T13:06:00;98215.88;;;25.54;42.82
52319;BME280;38258;51.148;14.068;2023-07-13T13:08:28;98200.69;;;25.93;44.62
52319;BME280;38258;51.148;14.068;2023-07-13T13:10:55;98212.63;;;25.11;41.56
52319;BME280;38258;51.148;14.068;2023-07-13T13:13:22;98208.97;;;24.93;40.92
52319;BME280;38258;51.148;14.068;2023-07-13T13:15:50;98208.81;;;25.34;40.11
52319;BME280;38258;51.148;14.068;2023-07-13T13:18:18;98212.00;;;27.17;38.40
52319;BME280;38258;51.148;14.068;2023-07-13T13:20:49;98196.97;;;27.24;36.51
52319;BME280;38258;51.148;14.068;2023-07-13T13:23:19;98197.09;;;27.59;38.81
52319;BME280;38258;51.148;14.068;2023-07-13T13:25:48;98205.06;;;26.78;38.34
52319;BME280;38258;51.148;14.068;2023-07-13T13:28:17;98206.44;;;26.92;37.71
52319;BME280;38258;51.148;14.068;2023-07-13T13:30:47;98202.50;;;25.54;39.28
52319;BME280;38258;51.148;14.068;2023-07-13T13:33:17;98197.97;;;25.35;38.71
52319;BME280;38258;51.148;14.068;2023-07-13T13:35:44;98197.00;;;27.06;36.62
52319;BME280;38258;51.148;14.068;2023-07-13T13:38:14;98207.97;;;26.66;37.12
52319;BME280;38258;51.148;14.068;2023-07-13T13:40:42;98205.28;;;26.48;38.77
52319;BME280;38258;51.148;14.068;2023-07-13T13:43:17;98201.44;;;26.51;36.12
52319;BME280;38258;51.148;14.068;2023-07-13T13:45:45;98202.34;;;26.60;37.12
52319;BME280;38258;51.148;14.068;2023-07-13T13:48:15;98215.31;;;27.10;37.38
52319;BME280;38258;51.148;14.068;2023-07-13T13:50:44;98200.31;;;26.25;37.23
52319;BME280;38258;51.148;14.068;2023-07-13T13:53:12;98214.31;;;25.32;38.58
52319;BME280;38258;51.148;14.068;2023-07-13T13:55:40;98193.13;;;26.44;38.67
52319;BME280;38258;51.148;14.068;2023-07-13T13:58:09;98191.69;;;26.96;37.06
52319;BME280;38258;51.148;14.068;2023-07-13T14:00:37;98222.75;;;25.77;40.07
52319;BME280;38258;51.148;14.068;2023-07-13T14:03:14;98216.72;;;25.55;39.90
52319;BME280;38258;51.148;14.068;2023-07-13T14:05:51;98212.47;;;25.03;42.08
52319;BME280;38258;51.148;14.068;2023-07-13T14:08:20;98204.59;;;26.64;40.54
52319;BME280;38258;51.148;14.068;2023-07-13T14:10:51;98215.78;;;27.06;39.83
52319;BME280;38258;51.148;14.068;2023-07-13T14:13:21;98202.44;;;26.22;39.39
52319;BME280;38258;51.148;14.068;2023-07-13T14:15:49;98205.31;;;26.38;39.54
52319;BME280;38258;51.148;14.068;2023-07-13T14:18:17;98199.41;;;25.97;39.14
52319;BME280;38258;51.148;14.068;2023-07-13T14:20:44;98190.88;;;26.49;38.45
52319;BME280;38258;51.148;14.068;2023-07-13T14:23:12;98198.22;;;26.47;38.29
52319;BME280;38258;51.148;14.068;2023-07-13T14:25:42;98216.53;;;26.98;37.51
52319;BME280;38258;51.148;14.068;2023-07-13T14:28:20;98205.22;;;25.92;38.48
52319;BME280;38258;51.148;14.068;2023-07-13T14:30:47;98203.50;;;27.21;37.63
52319;BME280;38258;51.148;14.068;2023-07-13T14:33:15;98205.53;;;25.69;39.96
52319;BME280;38258;51.148;14.068;2023-07-13T14:35:43;98199.75;;;26.50;39.17
52319;BME280;38258;51.148;14.068;2023-07-13T14:38:12;98194.53;;;26.94;37.26